Startpagina
METAR-TAF:

METAR-TAF

Vliegvelden :

RAF Benson

Benson, Engeland

breedte: 51-37N, lengte: 001-05W, hoogte: 63 m

Actueel weer

Dit bericht is 1 uur en het 19 minuten geleden gemaakt, om 01:50 UTC
Weinig wind
Temperatuur 5°C
Vochtigheid 100%
Druk 1025 hPa
Zicht: 1700 m

METAR: EGUB 240150Z AUTO 00000KT 1700 // BKN002/// SCT013/// 05/05 Q1025

Tijdstip: 03:09 (03:09 UTC)

Verwachting

Dit bericht is 10 uur en het 45 minuten geleden gemaakt, om 16:24 UTC
Verwachting geldig van 23 om 18 UTC tot 23 om 22 UTC
Wind 3 kt uit variabele richting
Zicht 10 km of meer
Gebroken wolken op 1000 ft
Wijzigt naar
van 23 om 18 UTC tot 23 om 21 UTC
Zicht: 6000 m
nevel
Kans 30% :
Tijdelijke
van 23 om 21 UTC tot 23 om 22 UTC
Verspreide wolken op 600 ft

TAF: EGUB 231624Z 2318/2322 VRB03KT 9999 BKN010 BECMG 2318/2321 6000 BR PROB30 TEMPO 2321/2322 SCT006

Waarnemingen en weersverwachtingen van meer dan 4000 vliegvelden (METAR en TAF).

De beschikbare stations zijn de gele en rode punten op de kaart.

Ga met uw muis naar het station om de naam te zien.

Klik dan om waarnemingen en weersverwachtingen te zien.

kaart wijzigen: klik op de groene knoppen met een zwart kruis om in te zoomen, op de groene knop met een streepje om uit te zoomen of op de groene pijlen voor aangrenzende kaarten.


METAR-TAF: